createdAt,value
2022-07-25T00:00:29.483Z,93900.47
2022-07-25T00:02:56.733Z,93900.22
2022-07-25T00:05:23.256Z,93889.81
2022-07-25T00:07:50.229Z,93904.22
2022-07-25T00:10:17.016Z,93901.00
2022-07-25T00:12:43.940Z,93900.94
2022-07-25T00:15:11.428Z,93903.59
2022-07-25T00:17:38.355Z,93878.75
2022-07-25T00:20:05.534Z,93892.53
2022-07-25T00:22:32.022Z,93876.38
2022-07-25T00:24:58.497Z,93875.78
2022-07-25T00:27:25.351Z,93906.97
2022-07-25T00:29:51.790Z,93869.56
2022-07-25T00:32:18.394Z,93880.22
2022-07-25T00:34:45.000Z,93874.13
2022-07-25T00:37:11.420Z,93872.38
2022-07-25T00:39:37.914Z,93867.72
2022-07-25T00:42:04.712Z,93900.69
2022-07-25T00:44:32.981Z,93881.63
2022-07-25T00:46:59.999Z,93891.25
2022-07-25T00:49:26.795Z,93857.22
2022-07-25T00:51:54.545Z,93888.69
2022-07-25T00:54:21.362Z,93878.28
2022-07-25T00:56:48.429Z,93873.47
2022-07-25T00:59:14.841Z,93852.16
2022-07-25T01:01:48.715Z,93862.72
2022-07-25T01:04:16.587Z,93880.13
2022-07-25T01:06:43.453Z,93868.91
2022-07-25T01:09:10.804Z,93881.94
2022-07-25T01:11:37.399Z,93864.78
2022-07-25T01:14:05.004Z,93880.28
2022-07-25T01:16:31.868Z,93874.88
2022-07-25T01:18:58.420Z,93876.34
2022-07-25T01:21:25.258Z,93848.78
2022-07-25T01:23:51.891Z,93878.28
2022-07-25T01:26:18.417Z,93851.50
2022-07-25T01:28:44.853Z,93842.16
2022-07-25T01:31:11.352Z,93860.97
2022-07-25T01:33:37.820Z,93860.47
2022-07-25T01:36:05.506Z,93864.72
2022-07-25T01:38:31.911Z,93827.28
2022-07-25T01:40:58.320Z,93836.31
2022-07-25T01:43:25.798Z,93827.91
2022-07-25T01:45:52.259Z,93831.94
2022-07-25T01:48:18.754Z,93859.28
2022-07-25T01:50:46.594Z,93839.19
2022-07-25T01:53:13.034Z,93818.81
2022-07-25T01:55:39.481Z,93839.53
2022-07-25T01:58:06.372Z,93851.25
2022-07-25T02:00:34.391Z,93838.06
2022-07-25T02:03:19.523Z,93850.63
2022-07-25T02:05:45.940Z,93841.25
2022-07-25T02:08:12.369Z,93851.09
2022-07-25T02:10:38.844Z,93816.69
2022-07-25T02:13:05.557Z,93852.16
2022-07-25T02:15:32.080Z,93822.63
2022-07-25T02:17:58.479Z,93804.06
2022-07-25T02:20:24.940Z,93801.19
2022-07-25T02:22:51.361Z,93835.03
2022-07-25T02:25:17.965Z,93837.81
2022-07-25T02:27:44.409Z,93831.75
2022-07-25T02:30:11.349Z,93839.66
2022-07-25T02:32:37.827Z,93813.50
2022-07-25T02:35:13.089Z,93812.50
2022-07-25T02:37:43.124Z,93815.03
2022-07-25T02:40:10.054Z,93832.97
2022-07-25T02:42:36.542Z,93826.91
2022-07-25T02:45:03.472Z,93806.28
2022-07-25T02:47:29.894Z,93824.16
2022-07-25T02:49:56.340Z,93817.69
2022-07-25T02:52:22.752Z,93796.28
2022-07-25T02:54:50.683Z,93796.09
2022-07-25T02:57:17.428Z,93798.16
2022-07-25T02:59:43.869Z,93799.75
2022-07-25T03:02:10.309Z,93794.28
2022-07-25T03:04:36.823Z,93819.63
2022-07-25T03:07:03.282Z,93803.44
2022-07-25T03:09:29.714Z,93827.91
2022-07-25T03:11:56.124Z,93801.81
2022-07-25T03:14:22.574Z,93826.69
2022-07-25T03:16:50.031Z,93809.63
2022-07-25T03:19:17.230Z,93804.69
2022-07-25T03:21:43.644Z,93830.06
2022-07-25T03:24:10.233Z,93812.81
2022-07-25T03:26:37.022Z,93813.50
2022-07-25T03:29:04.172Z,93803.75
2022-07-25T03:31:30.649Z,93804.75
2022-07-25T03:33:57.155Z,93814.63
2022-07-25T03:36:23.649Z,93804.03
2022-07-25T03:38:50.093Z,93793.66
2022-07-25T03:41:16.499Z,93788.19
2022-07-25T03:43:42.921Z,93793.81
2022-07-25T03:46:09.406Z,93797.00
2022-07-25T03:48:36.047Z,93794.00
2022-07-25T03:51:06.915Z,93805.84
2022-07-25T03:53:53.969Z,93801.81
2022-07-25T03:56:20.716Z,93799.66
2022-07-25T03:58:47.133Z,93777.13
2022-07-25T04:01:14.595Z,93810.53
2022-07-25T04:03:41.120Z,93778.03
2022-07-25T04:06:10.206Z,93794.06
2022-07-25T04:08:36.654Z,93799.56
2022-07-25T04:11:03.527Z,93797.94
2022-07-25T04:13:29.945Z,93769.31
2022-07-25T04:15:56.669Z,93790.13
2022-07-25T04:18:27.433Z,93789.19
2022-07-25T04:20:55.297Z,93788.50
2022-07-25T04:23:21.744Z,93782.53
2022-07-25T04:25:48.157Z,93771.53
2022-07-25T04:28:14.591Z,93769.91
2022-07-25T04:30:45.350Z,93780.84
2022-07-25T04:33:12.885Z,93779.47
2022-07-25T04:35:39.732Z,93788.66
2022-07-25T04:38:11.683Z,93747.81
2022-07-25T04:40:38.969Z,93762.88
2022-07-25T04:43:05.567Z,93785.47
2022-07-25T04:45:33.274Z,93763.22
2022-07-25T04:47:59.760Z,93713.16
2022-07-25T04:50:26.691Z,93778.44
2022-07-25T04:52:53.207Z,93757.88
2022-07-25T04:55:19.903Z,93770.75
2022-07-25T04:57:47.179Z,93772.56
2022-07-25T05:00:15.099Z,93776.47
2022-07-25T05:02:43.458Z,93760.63
2022-07-25T05:05:21.039Z,93775.97
2022-07-25T05:07:48.335Z,93761.81
2022-07-25T05:10:14.783Z,93747.41
2022-07-25T05:12:43.524Z,93775.31
2022-07-25T05:15:10.413Z,93767.56
2022-07-25T05:17:36.814Z,93755.16
2022-07-25T05:20:03.915Z,93769.94
2022-07-25T05:22:30.378Z,93758.28
2022-07-25T05:24:56.892Z,93759.94
2022-07-25T05:27:23.359Z,93765.38
2022-07-25T05:29:49.793Z,93751.16
2022-07-25T05:32:16.200Z,93732.72
2022-07-25T05:34:42.623Z,93762.44
2022-07-25T05:37:09.061Z,93744.94
2022-07-25T05:39:37.385Z,93740.69
2022-07-25T05:42:03.968Z,93754.06
2022-07-25T05:44:30.441Z,93758.63
2022-07-25T05:46:57.076Z,93767.00
2022-07-25T05:49:23.570Z,93752.13
2022-07-25T05:51:49.977Z,93744.47
2022-07-25T05:54:16.439Z,93748.50
2022-07-25T05:56:43.114Z,93770.44
2022-07-25T05:59:09.716Z,93763.50
2022-07-25T06:01:36.699Z,93752.41
2022-07-25T06:04:03.449Z,93746.06
2022-07-25T06:06:32.672Z,93750.84
2022-07-25T06:08:59.079Z,93746.09
2022-07-25T06:11:30.924Z,93761.56
2022-07-25T06:13:57.753Z,93749.91
2022-07-25T06:16:24.726Z,93744.06
2022-07-25T06:18:51.329Z,93730.25
2022-07-25T06:21:17.751Z,93749.34
2022-07-25T06:23:44.283Z,93737.69
2022-07-25T06:26:11.002Z,93729.19
2022-07-25T06:28:38.235Z,93751.47
2022-07-25T06:31:04.725Z,93732.88
2022-07-25T06:33:31.160Z,93741.38
2022-07-25T06:35:57.568Z,93749.06
2022-07-25T06:38:24.039Z,93740.81
2022-07-25T06:40:50.543Z,93734.41
2022-07-25T06:43:16.989Z,93724.00
2022-07-25T06:45:47.325Z,93742.19
2022-07-25T06:48:15.114Z,93726.69
2022-07-25T06:50:41.699Z,93744.34
2022-07-25T06:53:08.099Z,93728.78
2022-07-25T06:55:34.522Z,93729.84
2022-07-25T06:58:00.970Z,93734.94
2022-07-25T07:00:27.596Z,93736.31
2022-07-25T07:02:56.836Z,93734.97
2022-07-25T07:05:26.086Z,93719.97
2022-07-25T07:07:53.806Z,93733.59
2022-07-25T07:10:21.864Z,93718.03
2022-07-25T07:12:49.389Z,93718.19
2022-07-25T07:15:16.682Z,93721.75
2022-07-25T07:17:43.347Z,93734.72
2022-07-25T07:20:10.550Z,93727.97
2022-07-25T07:22:44.583Z,93715.72
2022-07-25T07:25:14.279Z,93739.78
2022-07-25T07:27:40.801Z,93721.44
2022-07-25T07:30:08.074Z,93661.25
2022-07-25T07:32:35.828Z,93707.22
2022-07-25T07:35:02.315Z,93705.44
2022-07-25T07:37:35.041Z,93728.41
2022-07-25T07:40:04.264Z,93736.09
2022-07-25T07:42:41.482Z,93703.41
2022-07-25T07:45:12.774Z,93719.56
2022-07-25T07:47:39.334Z,93726.59
2022-07-25T07:50:06.601Z,93714.41
2022-07-25T07:52:33.087Z,93713.53
2022-07-25T07:55:18.254Z,93711.69
2022-07-25T07:57:44.659Z,93706.75
2022-07-25T08:00:16.300Z,93712.13
2022-07-25T08:02:49.300Z,93704.97
2022-07-25T08:05:25.988Z,93721.63
2022-07-25T08:07:53.471Z,93714.06
2022-07-25T08:10:26.066Z,93709.19
2022-07-25T08:12:52.778Z,93712.38
2022-07-25T08:15:20.586Z,93713.56
2022-07-25T08:17:48.701Z,93729.88
2022-07-25T08:20:37.055Z,93716.56
2022-07-25T08:23:02.228Z,93711.03
2022-07-25T08:25:28.697Z,93709.47
2022-07-25T08:27:55.429Z,93707.28
2022-07-25T08:30:22.046Z,93719.75
2022-07-25T08:32:51.983Z,93718.69
2022-07-25T08:35:20.223Z,93720.25
2022-07-25T08:37:47.707Z,93710.44
2022-07-25T08:40:16.208Z,93708.88
2022-07-25T08:42:42.863Z,93713.00
2022-07-25T08:45:13.216Z,93718.53
2022-07-25T08:47:40.771Z,93703.81
2022-07-25T08:50:12.755Z,93717.75
2022-07-25T08:52:39.566Z,93716.47
2022-07-25T08:55:09.032Z,93714.41
2022-07-25T08:57:36.763Z,93715.31
2022-07-25T09:00:05.412Z,93723.09
2022-07-25T09:02:32.178Z,93695.53
2022-07-25T09:04:59.789Z,93727.81
2022-07-25T09:07:40.398Z,93716.09
2022-07-25T09:10:22.565Z,93704.59
2022-07-25T09:12:52.609Z,93712.63
2022-07-25T09:15:32.890Z,93702.13
2022-07-25T09:18:01.444Z,93714.81
2022-07-25T09:20:40.454Z,93703.38
2022-07-25T09:23:07.546Z,93707.78
2022-07-25T09:25:35.117Z,93712.34
2022-07-25T09:28:21.779Z,93706.47
2022-07-25T09:30:55.186Z,93706.28
2022-07-25T09:33:26.413Z,93709.53
2022-07-25T09:35:53.823Z,93697.66
2022-07-25T09:38:21.571Z,93679.19
2022-07-25T09:40:58.444Z,93681.50
2022-07-25T09:43:44.578Z,93677.41
2022-07-25T09:46:12.260Z,93692.25
2022-07-25T09:48:43.953Z,93684.25
2022-07-25T09:51:10.626Z,93700.03
2022-07-25T09:53:37.103Z,93665.09
2022-07-25T09:56:03.649Z,93684.66
2022-07-25T09:58:30.472Z,93683.78
2022-07-25T10:01:07.320Z,93687.28
2022-07-25T10:03:53.901Z,93673.06
2022-07-25T10:06:38.615Z,93700.81
2022-07-25T10:09:11.936Z,93693.22
2022-07-25T10:11:38.432Z,93685.78
2022-07-25T10:14:14.867Z,93689.69
2022-07-25T10:16:46.782Z,93687.44
2022-07-25T10:19:13.561Z,93695.13
2022-07-25T10:21:40.900Z,93664.50
2022-07-25T10:24:10.982Z,93675.06
2022-07-25T10:26:40.165Z,93693.09
2022-07-25T10:29:11.324Z,93667.88
2022-07-25T10:31:49.891Z,93695.59
2022-07-25T10:34:30.133Z,93699.84
2022-07-25T10:36:57.325Z,93676.44
2022-07-25T10:39:24.055Z,93694.00
2022-07-25T10:41:59.170Z,93678.69
2022-07-25T10:44:30.597Z,93690.63
2022-07-25T10:47:10.059Z,93684.31
2022-07-25T10:49:46.434Z,93687.13
2022-07-25T10:52:29.809Z,93684.31
2022-07-25T10:54:59.062Z,93685.84
2022-07-25T10:57:31.731Z,93689.44
2022-07-25T11:00:09.081Z,93677.66
2022-07-25T11:02:36.098Z,93673.00
2022-07-25T11:05:04.198Z,93649.66
2022-07-25T11:07:37.998Z,93658.66
2022-07-25T11:10:06.085Z,93671.84
2022-07-25T11:12:33.395Z,93657.97
2022-07-25T11:15:02.405Z,93671.00
2022-07-25T11:17:29.815Z,93644.00
2022-07-25T11:20:06.669Z,93658.13
2022-07-25T11:22:34.556Z,93657.50
2022-07-25T11:25:03.046Z,93664.91
2022-07-25T11:27:31.896Z,93669.19
2022-07-25T11:30:08.262Z,93660.00
2022-07-25T11:32:45.503Z,93666.25
2022-07-25T11:35:14.450Z,93653.22
2022-07-25T11:37:43.363Z,93647.53
2022-07-25T11:40:10.952Z,93652.69
2022-07-25T11:42:45.824Z,93645.75
2022-07-25T11:45:25.901Z,93650.47
2022-07-25T11:48:10.144Z,93649.38
2022-07-25T11:50:39.392Z,93648.84
2022-07-25T11:53:08.702Z,93648.63
2022-07-25T11:55:40.137Z,93630.81
2022-07-25T11:58:07.271Z,93627.06
2022-07-25T12:00:35.690Z,93632.69
2022-07-25T12:03:16.983Z,93626.66
2022-07-25T12:05:46.127Z,93628.44
2022-07-25T12:08:21.163Z,93639.28
2022-07-25T12:10:51.260Z,93606.47
2022-07-25T12:13:26.227Z,93628.91
2022-07-25T12:15:53.600Z,93635.31
2022-07-25T12:18:20.070Z,93625.53
2022-07-25T12:20:46.542Z,93611.91
2022-07-25T12:23:13.573Z,93621.72
2022-07-25T12:25:44.815Z,93625.72
2022-07-25T12:28:12.510Z,93603.16
2022-07-25T12:30:41.187Z,93623.28
2022-07-25T12:33:07.947Z,93622.63
2022-07-25T12:35:37.211Z,93603.34
2022-07-25T12:38:04.531Z,93624.66
2022-07-25T12:40:31.195Z,93595.97
2022-07-25T12:42:58.843Z,93623.94
2022-07-25T12:45:26.307Z,93623.03
2022-07-25T12:47:52.774Z,93615.69
2022-07-25T12:50:19.464Z,93620.03
2022-07-25T12:52:47.059Z,93583.13
2022-07-25T12:55:15.998Z,93585.53
2022-07-25T12:57:42.765Z,93580.63
2022-07-25T13:00:13.234Z,93595.00
2022-07-25T13:02:39.952Z,93600.22
2022-07-25T13:05:07.386Z,93590.94
2022-07-25T13:07:34.476Z,93597.03
2022-07-25T13:10:01.987Z,93593.22
2022-07-25T13:12:28.495Z,93586.22
2022-07-25T13:14:55.105Z,93578.88
2022-07-25T13:17:26.945Z,93596.28
2022-07-25T13:19:56.588Z,93569.41
2022-07-25T13:22:23.378Z,93572.88
2022-07-25T13:24:50.066Z,93593.94
2022-07-25T13:27:19.452Z,93582.69
2022-07-25T13:29:47.261Z,93589.53
2022-07-25T13:32:17.049Z,93562.13
2022-07-25T13:34:43.551Z,93565.44
2022-07-25T13:37:10.012Z,93548.75
2022-07-25T13:39:38.346Z,93571.72
2022-07-25T13:42:11.952Z,93556.28
2022-07-25T13:44:38.777Z,93552.88
2022-07-25T13:47:05.443Z,93531.91
2022-07-25T13:49:32.070Z,93546.03
2022-07-25T13:51:58.507Z,93540.97
2022-07-25T13:54:26.040Z,93550.88
2022-07-25T13:56:52.528Z,93528.59
2022-07-25T13:59:21.434Z,93556.88
2022-07-25T14:01:49.188Z,93554.59
2022-07-25T14:04:16.039Z,93536.44
2022-07-25T14:06:43.086Z,93550.13
2022-07-25T14:09:09.888Z,93538.19
2022-07-25T14:11:37.652Z,93531.50
2022-07-25T14:14:04.132Z,93531.41
2022-07-25T14:16:30.850Z,93547.19
2022-07-25T14:18:57.383Z,93528.22
2022-07-25T14:21:24.054Z,93511.66
2022-07-25T14:23:54.068Z,93514.78
2022-07-25T14:26:20.569Z,93510.25
2022-07-25T14:28:47.030Z,93514.50
2022-07-25T14:31:13.594Z,93526.94
2022-07-25T14:33:40.568Z,93519.66
2022-07-25T14:36:09.893Z,93535.56
2022-07-25T14:38:36.558Z,93500.13
2022-07-25T14:41:04.337Z,93524.66
2022-07-25T14:43:33.143Z,93494.53
2022-07-25T14:45:59.632Z,93511.22
2022-07-25T14:48:26.114Z,93495.41
2022-07-25T14:50:52.634Z,93494.41
2022-07-25T14:53:19.392Z,93503.69
2022-07-25T14:55:45.848Z,93484.13
2022-07-25T14:58:13.808Z,93499.97
2022-07-25T15:00:43.100Z,93472.00
2022-07-25T15:03:09.712Z,93497.59
2022-07-25T15:05:38.586Z,93479.03
2022-07-25T15:08:06.216Z,93486.78
2022-07-25T15:10:32.733Z,93490.19
2022-07-25T15:13:28.071Z,93471.75
2022-07-25T15:15:45.985Z,93485.13
2022-07-25T15:18:14.134Z,93470.69
2022-07-25T15:20:40.960Z,93481.34
2022-07-25T15:23:07.662Z,93469.47
2022-07-25T15:26:00.741Z,93447.25
2022-07-25T15:28:22.031Z,93469.59
2022-07-25T15:30:48.698Z,93450.63
2022-07-25T15:33:15.356Z,93462.34
2022-07-25T15:35:44.156Z,93473.97
2022-07-25T15:38:11.642Z,93466.53
2022-07-25T15:40:38.143Z,93483.72
2022-07-25T15:43:04.663Z,93456.09
2022-07-25T15:45:32.953Z,93467.16
2022-07-25T15:48:00.572Z,93465.28
2022-07-25T15:50:27.284Z,93466.75
2022-07-25T15:52:53.714Z,93464.16
2022-07-25T15:55:20.269Z,93434.63
2022-07-25T15:57:47.037Z,93462.78
2022-07-25T16:00:13.952Z,93462.19
2022-07-25T16:02:40.514Z,93439.06
2022-07-25T16:05:07.222Z,93444.78
2022-07-25T16:07:33.856Z,93443.91
2022-07-25T16:10:00.281Z,93440.19
2022-07-25T16:12:28.782Z,93443.91
2022-07-25T16:14:55.850Z,93452.34
2022-07-25T16:17:22.919Z,93442.88
2022-07-25T16:19:49.402Z,93440.94
2022-07-25T16:22:15.915Z,93451.63
2022-07-25T16:24:42.387Z,93418.25
2022-07-25T16:27:09.934Z,93431.06
2022-07-25T16:29:36.985Z,93416.66
2022-07-25T16:32:03.690Z,93434.28
2022-07-25T16:34:30.217Z,93384.03
2022-07-25T16:36:56.797Z,93355.44
2022-07-25T16:39:23.378Z,93402.84
2022-07-25T16:41:50.155Z,93413.53
2022-07-25T16:44:16.685Z,93400.13
2022-07-25T16:46:43.186Z,93406.41
2022-07-25T16:49:10.314Z,93410.41
2022-07-25T16:51:37.474Z,93395.28
2022-07-25T16:54:04.096Z,93385.66
2022-07-25T16:56:30.689Z,93422.59
2022-07-25T16:58:57.123Z,93442.88
2022-07-25T17:01:25.944Z,93439.69
2022-07-25T17:03:53.035Z,93406.47
2022-07-25T17:06:19.779Z,93426.94
2022-07-25T17:08:46.711Z,93420.78
2022-07-25T17:11:13.375Z,93443.34
2022-07-25T17:13:40.063Z,93437.69
2022-07-25T17:16:06.987Z,93414.03
2022-07-25T17:18:33.442Z,93417.44
2022-07-25T17:20:59.872Z,93438.81
2022-07-25T17:23:26.433Z,93436.00
2022-07-25T17:25:53.603Z,93441.88
2022-07-25T17:28:21.542Z,93454.88
2022-07-25T17:30:48.307Z,93453.00
2022-07-25T17:33:14.883Z,93439.41
2022-07-25T17:35:41.475Z,93450.22
2022-07-25T17:38:07.925Z,93443.66
2022-07-25T17:40:38.977Z,93440.09
2022-07-25T17:43:05.803Z,93448.50
2022-07-25T17:45:32.288Z,93445.78
2022-07-25T17:47:58.789Z,93423.28
2022-07-25T17:50:29.408Z,93433.19
2022-07-25T17:53:00.431Z,93444.19
2022-07-25T17:55:28.667Z,93446.19
2022-07-25T17:57:55.768Z,93463.03
2022-07-25T18:00:23.665Z,93441.00
2022-07-25T18:02:50.499Z,93421.31
2022-07-25T18:05:18.332Z,93437.16
2022-07-25T18:07:49.372Z,93450.66
2022-07-25T18:10:17.555Z,93438.75
2022-07-25T18:12:44.846Z,93418.69
2022-07-25T18:15:12.306Z,93413.31
2022-07-25T18:17:40.853Z,93408.22
2022-07-25T18:20:07.980Z,93437.91
2022-07-25T18:22:34.564Z,93407.84
2022-07-25T18:25:01.028Z,93423.22
2022-07-25T18:27:27.473Z,93415.84
2022-07-25T18:29:53.896Z,93439.22
2022-07-25T18:32:20.330Z,93436.41
2022-07-25T18:34:46.766Z,93418.72
2022-07-25T18:37:13.424Z,93432.63
2022-07-25T18:39:39.882Z,93420.38
2022-07-25T18:42:06.390Z,93364.31
2022-07-25T18:44:34.535Z,93429.03
2022-07-25T18:47:01.047Z,93423.56
2022-07-25T18:49:29.459Z,93439.81
2022-07-25T18:51:55.907Z,93415.16
2022-07-25T18:54:22.362Z,93434.28
2022-07-25T18:56:48.873Z,93423.72
2022-07-25T18:59:16.170Z,93432.28
2022-07-25T19:01:42.685Z,93438.88
2022-07-25T19:04:09.539Z,93411.91
2022-07-25T19:06:37.498Z,93455.69
2022-07-25T19:09:04.248Z,93481.91
2022-07-25T19:11:30.716Z,93472.28
2022-07-25T19:14:03.498Z,93468.16
2022-07-25T19:16:30.743Z,93508.00
2022-07-25T19:18:57.241Z,93491.88
2022-07-25T19:21:23.666Z,93492.66
2022-07-25T19:23:51.427Z,93505.28
2022-07-25T19:26:19.790Z,93526.56
2022-07-25T19:28:47.166Z,93536.22
2022-07-25T19:31:13.902Z,93539.25
2022-07-25T19:33:45.836Z,93510.25
2022-07-25T19:36:14.030Z,93545.78
2022-07-25T19:38:40.484Z,93494.31
2022-07-25T19:41:08.288Z,93536.44
2022-07-25T19:43:34.951Z,93561.13
2022-07-25T19:46:08.484Z,93519.28
2022-07-25T19:48:34.981Z,93531.88
2022-07-25T19:51:01.470Z,93548.31
2022-07-25T19:53:28.741Z,93549.72
2022-07-25T19:55:55.410Z,93578.81
2022-07-25T19:58:21.945Z,93596.63
2022-07-25T20:00:48.443Z,93577.22
2022-07-25T20:03:15.630Z,93582.78
2022-07-25T20:05:45.087Z,93595.66
2022-07-25T20:08:12.380Z,93614.19
2022-07-25T20:10:42.012Z,93600.41
2022-07-25T20:13:08.496Z,93605.56
2022-07-25T20:15:34.913Z,93593.47
2022-07-25T20:18:01.424Z,93559.41
2022-07-25T20:20:28.959Z,93597.81
2022-07-25T20:22:56.365Z,93603.56
2022-07-25T20:25:22.807Z,93622.53
2022-07-25T20:27:49.762Z,93606.63
2022-07-25T20:30:17.702Z,93609.75
2022-07-25T20:32:44.255Z,93624.91
2022-07-25T20:35:10.704Z,93652.84
2022-07-25T20:37:37.240Z,93651.03
2022-07-25T20:40:04.680Z,93684.09
2022-07-25T20:42:31.339Z,93727.25
2022-07-25T20:44:57.898Z,93735.03
2022-07-25T20:47:24.973Z,93739.44
2022-07-25T20:49:51.410Z,93776.91
2022-07-25T20:52:17.882Z,93765.84
2022-07-25T20:54:44.328Z,93754.69
2022-07-25T20:57:11.663Z,93732.91
2022-07-25T20:59:38.062Z,93753.59
2022-07-25T21:02:04.653Z,93752.00
2022-07-25T21:04:31.255Z,93763.16
2022-07-25T21:06:57.753Z,93790.78
2022-07-25T21:09:24.214Z,93825.38
2022-07-25T21:11:50.730Z,93813.66
2022-07-25T21:14:17.176Z,93830.13
2022-07-25T21:16:43.801Z,93800.88
2022-07-25T21:19:10.816Z,93818.94
2022-07-25T21:21:37.476Z,93842.97
2022-07-25T21:24:04.622Z,93833.66
2022-07-25T21:26:31.097Z,93837.59
2022-07-25T21:28:57.689Z,93836.19
2022-07-25T21:31:24.601Z,93854.31
2022-07-25T21:33:51.073Z,93865.63
2022-07-25T21:36:17.480Z,93872.75
2022-07-25T21:38:43.885Z,93869.25
2022-07-25T21:41:10.528Z,93808.44
2022-07-25T21:43:37.043Z,93876.25
2022-07-25T21:46:03.722Z,93873.09
2022-07-25T21:48:48.820Z,93856.94
2022-07-25T21:51:19.269Z,93833.81
2022-07-25T21:53:50.831Z,93848.97
2022-07-25T21:56:17.362Z,93858.81
2022-07-25T21:58:43.913Z,93846.53
2022-07-25T22:01:11.624Z,93841.63
2022-07-25T22:03:38.232Z,93826.66
2022-07-25T22:06:04.693Z,93844.22
2022-07-25T22:08:31.191Z,93828.31
2022-07-25T22:10:58.183Z,93830.47
2022-07-25T22:13:28.131Z,93822.72
2022-07-25T22:15:54.565Z,93841.66
2022-07-25T22:18:21.000Z,93830.00
2022-07-25T22:20:48.103Z,93806.31
2022-07-25T22:23:14.529Z,93835.88
2022-07-25T22:25:40.944Z,93831.06
2022-07-25T22:28:07.360Z,93844.66
2022-07-25T22:30:40.540Z,93825.16
2022-07-25T22:33:06.975Z,93854.91
2022-07-25T22:35:33.490Z,93860.78
2022-07-25T22:37:59.880Z,93853.34
2022-07-25T22:40:26.439Z,93850.66
2022-07-25T22:42:52.903Z,93828.31
2022-07-25T22:45:20.048Z,93836.56
2022-07-25T22:47:46.442Z,93854.91
2022-07-25T22:50:12.907Z,93870.31
2022-07-25T22:52:39.328Z,93857.00
2022-07-25T22:55:06.076Z,93846.34
2022-07-25T22:57:37.503Z,93836.88
2022-07-25T23:00:10.959Z,93839.19
2022-07-25T23:02:38.675Z,93873.03
2022-07-25T23:05:06.167Z,93850.03
2022-07-25T23:07:33.254Z,93852.94
2022-07-25T23:10:00.947Z,93869.75
2022-07-25T23:12:27.444Z,93878.19
2022-07-25T23:14:53.850Z,93861.16
2022-07-25T23:17:20.516Z,93860.06
2022-07-25T23:19:48.727Z,93869.19
2022-07-25T23:22:15.280Z,93854.31
2022-07-25T23:24:41.797Z,93863.84
2022-07-25T23:27:08.811Z,93864.94
2022-07-25T23:29:35.388Z,93877.13
2022-07-25T23:32:02.418Z,93861.72
2022-07-25T23:34:29.104Z,93866.00
2022-07-25T23:36:55.522Z,93843.66
2022-07-25T23:39:21.994Z,93849.53
2022-07-25T23:41:48.738Z,93861.78
2022-07-25T23:44:15.400Z,93877.19
2022-07-25T23:46:41.915Z,93860.69
2022-07-25T23:49:11.892Z,93866.06
2022-07-25T23:51:38.967Z,93848.50
2022-07-25T23:54:05.582Z,93865.50
2022-07-25T23:56:32.081Z,93845.34
2022-07-25T23:58:58.496Z,93833.06
